sensor_id;sensor_type;location;lat;lon;timestamp;P1;P2;P0
51052;PMS5003;37093;37.716;-122.060;2022-11-11T00:00:58;3;2;
51052;PMS5003;37093;37.716;-122.060;2022-11-11T00:03:27;4;2;
51052;PMS5003;37093;37.716;-122.060;2022-11-11T00:05:59;1;1;
51052;PMS5003;37093;37.716;-122.060;2022-11-11T00:08:29;3;2;
51052;PMS5003;37093;37.716;-122.060;2022-11-11T00:11:01;1;1;
51052;PMS5003;37093;37.716;-122.060;2022-11-11T00:13:30;2;1;
51052;PMS5003;37093;37.716;-122.060;2022-11-11T00:16:03;2;2;
51052;PMS5003;37093;37.716;-122.060;2022-11-11T00:18:32;2;1;
51052;PMS5003;37093;37.716;-122.060;2022-11-11T00:21:01;1;1;
51052;PMS5003;37093;37.716;-122.060;2022-11-11T00:23:29;1;1;
51052;PMS5003;37093;37.716;-122.060;2022-11-11T00:25:58;2;2;
51052;PMS5003;37093;37.716;-122.060;2022-11-11T00:28:27;3;1;
51052;PMS5003;37093;37.716;-122.060;2022-11-11T00:31:01;2;2;
51052;PMS5003;37093;37.716;-122.060;2022-11-11T00:33:29;2;2;
51052;PMS5003;37093;37.716;-122.060;2022-11-11T00:35:58;1;1;
51052;PMS5003;37093;37.716;-122.060;2022-11-11T00:38:26;0;0;
51052;PMS5003;37093;37.716;-122.060;2022-11-11T00:40:56;2;2;
51052;PMS5003;37093;37.716;-122.060;2022-11-11T00:43:24;2;2;
51052;PMS5003;37093;37.716;-122.060;2022-11-11T00:45:53;1;1;
51052;PMS5003;37093;37.716;-122.060;2022-11-11T00:48:22;1;1;
51052;PMS5003;37093;37.716;-122.060;2022-11-11T00:50:51;2;2;
51052;PMS5003;37093;37.716;-122.060;2022-11-11T00:53:20;2;1;
51052;PMS5003;37093;37.716;-122.060;2022-11-11T00:55:50;1;1;
51052;PMS5003;37093;37.716;-122.060;2022-11-11T00:58:19;4;3;
51052;PMS5003;37093;37.716;-122.060;2022-11-11T01:00:48;2;2;
51052;PMS5003;37093;37.716;-122.060;2022-11-11T01:03:16;0;0;
51052;PMS5003;37093;37.716;-122.060;2022-11-11T01:05:45;2;2;
51052;PMS5003;37093;37.716;-122.060;2022-11-11T01:08:13;1;1;
51052;PMS5003;37093;37.716;-122.060;2022-11-11T01:10:42;2;2;
51052;PMS5003;37093;37.716;-122.060;2022-11-11T01:13:14;2;2;
51052;PMS5003;37093;37.716;-122.060;2022-11-11T01:15:45;2;2;
51052;PMS5003;37093;37.716;-122.060;2022-11-11T01:18:16;1;1;
51052;PMS5003;37093;37.716;-122.060;2022-11-11T01:20:47;1;1;
51052;PMS5003;37093;37.716;-122.060;2022-11-11T01:23:24;2;2;
51052;PMS5003;37093;37.716;-122.060;2022-11-11T01:25:52;2;2;
51052;PMS5003;37093;37.716;-122.060;2022-11-11T01:28:21;2;2;
51052;PMS5003;37093;37.716;-122.060;2022-11-11T01:30:49;3;1;
51052;PMS5003;37093;37.716;-122.060;2022-11-11T01:33:18;1;1;
51052;PMS5003;37093;37.716;-122.060;2022-11-11T01:35:46;1;1;
51052;PMS5003;37093;37.716;-122.060;2022-11-11T01:38:15;8;6;
51052;PMS5003;37093;37.716;-122.060;2022-11-11T01:40:44;3;3;
51052;PMS5003;37093;37.716;-122.060;2022-11-11T01:43:17;2;2;
51052;PMS5003;37093;37.716;-122.060;2022-11-11T01:45:54;2;2;
51052;PMS5003;37093;37.716;-122.060;2022-11-11T01:48:26;2;2;
51052;PMS5003;37093;37.716;-122.060;2022-11-11T01:50:57;12;10;
51052;PMS5003;37093;37.716;-122.060;2022-11-11T01:53:26;12;8;
51052;PMS5003;37093;37.716;-122.060;2022-11-11T01:55:54;3;3;
51052;PMS5003;37093;37.716;-122.060;2022-11-11T01:58:25;2;2;
51052;PMS5003;37093;37.716;-122.060;2022-11-11T02:00:53;2;2;
51052;PMS5003;37093;37.716;-122.060;2022-11-11T02:03:22;2;2;
51052;PMS5003;37093;37.716;-122.060;2022-11-11T02:05:51;1;1;
51052;PMS5003;37093;37.716;-122.060;2022-11-11T02:08:21;2;2;
51052;PMS5003;37093;37.716;-122.060;2022-11-11T02:10:54;2;2;
51052;PMS5003;37093;37.716;-122.060;2022-11-11T02:13:22;3;3;
51052;PMS5003;37093;37.716;-122.060;2022-11-11T02:15:51;4;2;
51052;PMS5003;37093;37.716;-122.060;2022-11-11T02:18:19;3;3;
51052;PMS5003;37093;37.716;-122.060;2022-11-11T02:20:48;4;4;
51052;PMS5003;37093;37.716;-122.060;2022-11-11T02:23:18;3;3;
51052;PMS5003;37093;37.716;-122.060;2022-11-11T02:25:51;4;4;
51052;PMS5003;37093;37.716;-122.060;2022-11-11T02:28:23;3;3;
51052;PMS5003;37093;37.716;-122.060;2022-11-11T02:30:53;4;4;
51052;PMS5003;37093;37.716;-122.060;2022-11-11T02:33:22;4;2;
51052;PMS5003;37093;37.716;-122.060;2022-11-11T02:35:51;4;4;
51052;PMS5003;37093;37.716;-122.060;2022-11-11T02:38:23;4;4;
51052;PMS5003;37093;37.716;-122.060;2022-11-11T02:40:51;3;3;
51052;PMS5003;37093;37.716;-122.060;2022-11-11T02:43:21;4;4;
51052;PMS5003;37093;37.716;-122.060;2022-11-11T02:45:49;3;3;
51052;PMS5003;37093;37.716;-122.060;2022-11-11T02:48:18;4;4;
51052;PMS5003;37093;37.716;-122.060;2022-11-11T02:50:46;3;3;
51052;PMS5003;37093;37.716;-122.060;2022-11-11T02:53:15;3;2;
51052;PMS5003;37093;37.716;-122.060;2022-11-11T02:55:44;4;4;
51052;PMS5003;37093;37.716;-122.060;2022-11-11T02:58:12;6;4;
51052;PMS5003;37093;37.716;-122.060;2022-11-11T03:00:42;3;3;
51052;PMS5003;37093;37.716;-122.060;2022-11-11T03:03:11;3;3;
51052;PMS5003;37093;37.716;-122.060;2022-11-11T03:05:40;3;3;
51052;PMS5003;37093;37.716;-122.060;2022-11-11T03:08:08;3;3;
51052;PMS5003;37093;37.716;-122.060;2022-11-11T03:10:37;6;4;
51052;PMS5003;37093;37.716;-122.060;2022-11-11T03:13:05;4;4;
51052;PMS5003;37093;37.716;-122.060;2022-11-11T03:15:34;2;2;
51052;PMS5003;37093;37.716;-122.060;2022-11-11T03:18:03;5;4;
51052;PMS5003;37093;37.716;-122.060;2022-11-11T03:20:31;3;3;
51052;PMS5003;37093;37.716;-122.060;2022-11-11T03:23:00;3;3;
51052;PMS5003;37093;37.716;-122.060;2022-11-11T03:25:31;3;3;
51052;PMS5003;37093;37.716;-122.060;2022-11-11T03:28:00;2;2;
51052;PMS5003;37093;37.716;-122.060;2022-11-11T03:30:28;4;4;
51052;PMS5003;37093;37.716;-122.060;2022-11-11T03:32:57;3;3;
51052;PMS5003;37093;37.716;-122.060;2022-11-11T03:35:25;6;4;
51052;PMS5003;37093;37.716;-122.060;2022-11-11T03:37:54;3;3;
51052;PMS5003;37093;37.716;-122.060;2022-11-11T03:40:23;4;3;
51052;PMS5003;37093;37.716;-122.060;2022-11-11T03:42:51;3;3;
51052;PMS5003;37093;37.716;-122.060;2022-11-11T03:45:20;6;4;
51052;PMS5003;37093;37.716;-122.060;2022-11-11T03:47:48;4;3;
51052;PMS5003;37093;37.716;-122.060;2022-11-11T03:50:17;2;2;
51052;PMS5003;37093;37.716;-122.060;2022-11-11T03:52:45;4;4;
51052;PMS5003;37093;37.716;-122.060;2022-11-11T03:55:14;3;3;
51052;PMS5003;37093;37.716;-122.060;2022-11-11T03:57:43;4;3;
51052;PMS5003;37093;37.716;-122.060;2022-11-11T04:00:13;3;3;
51052;PMS5003;37093;37.716;-122.060;2022-11-11T04:02:43;3;3;
51052;PMS5003;37093;37.716;-122.060;2022-11-11T04:05:12;3;3;
51052;PMS5003;37093;37.716;-122.060;2022-11-11T04:07:41;6;5;
51052;PMS5003;37093;37.716;-122.060;2022-11-11T04:10:09;5;3;
51052;PMS5003;37093;37.716;-122.060;2022-11-11T04:10:11;5;3;
51052;PMS5003;37093;37.716;-122.060;2022-11-11T04:12:40;3;3;
51052;PMS5003;37093;37.716;-122.060;2022-11-11T04:15:10;4;3;
51052;PMS5003;37093;37.716;-122.060;2022-11-11T04:17:38;5;3;
51052;PMS5003;37093;37.716;-122.060;2022-11-11T04:20:07;5;5;
51052;PMS5003;37093;37.716;-122.060;2022-11-11T04:22:38;4;4;
51052;PMS5003;37093;37.716;-122.060;2022-11-11T04:25:08;4;3;
51052;PMS5003;37093;37.716;-122.060;2022-11-11T04:27:36;9;5;
51052;PMS5003;37093;37.716;-122.060;2022-11-11T04:30:05;12;10;
51052;PMS5003;37093;37.716;-122.060;2022-11-11T04:32:35;11;10;
51052;PMS5003;37093;37.716;-122.060;2022-11-11T04:35:04;13;9;
51052;PMS5003;37093;37.716;-122.060;2022-11-11T04:37:35;9;7;
51052;PMS5003;37093;37.716;-122.060;2022-11-11T04:40:11;5;5;
51052;PMS5003;37093;37.716;-122.060;2022-11-11T04:42:40;4;3;
51052;PMS5003;37093;37.716;-122.060;2022-11-11T04:45:09;5;5;
51052;PMS5003;37093;37.716;-122.060;2022-11-11T04:47:51;6;4;
51052;PMS5003;37093;37.716;-122.060;2022-11-11T04:50:20;4;4;
51052;PMS5003;37093;37.716;-122.060;2022-11-11T04:52:50;7;4;
51052;PMS5003;37093;37.716;-122.060;2022-11-11T04:55:18;4;4;
51052;PMS5003;37093;37.716;-122.060;2022-11-11T04:57:47;3;3;
51052;PMS5003;37093;37.716;-122.060;2022-11-11T05:00:16;5;4;
51052;PMS5003;37093;37.716;-122.060;2022-11-11T05:02:45;9;9;
51052;PMS5003;37093;37.716;-122.060;2022-11-11T05:05:13;32;29;
51052;PMS5003;37093;37.716;-122.060;2022-11-11T05:07:41;66;56;
51052;PMS5003;37093;37.716;-122.060;2022-11-11T05:10:10;77;61;
51052;PMS5003;37093;37.716;-122.060;2022-11-11T05:12:38;9;9;
51052;PMS5003;37093;37.716;-122.060;2022-11-11T05:15:07;29;16;
51052;PMS5003;37093;37.716;-122.060;2022-11-11T05:17:36;17;17;
51052;PMS5003;37093;37.716;-122.060;2022-11-11T05:20:07;17;17;
51052;PMS5003;37093;37.716;-122.060;2022-11-11T05:22:36;8;8;
51052;PMS5003;37093;37.716;-122.060;2022-11-11T05:25:05;6;5;
51052;PMS5003;37093;37.716;-122.060;2022-11-11T05:27:34;4;4;
51052;PMS5003;37093;37.716;-122.060;2022-11-11T05:30:03;5;4;
51052;PMS5003;37093;37.716;-122.060;2022-11-11T05:32:35;4;4;
51052;PMS5003;37093;37.716;-122.060;2022-11-11T05:35:04;5;4;
51052;PMS5003;37093;37.716;-122.060;2022-11-11T05:37:34;22;16;
51052;PMS5003;37093;37.716;-122.060;2022-11-11T05:40:02;13;11;
51052;PMS5003;37093;37.716;-122.060;2022-11-11T05:42:32;6;6;
51052;PMS5003;37093;37.716;-122.060;2022-11-11T05:45:00;6;5;
51052;PMS5003;37093;37.716;-122.060;2022-11-11T05:47:29;9;8;
51052;PMS5003;37093;37.716;-122.060;2022-11-11T05:49:57;9;9;
51052;PMS5003;37093;37.716;-122.060;2022-11-11T05:52:26;12;11;
51052;PMS5003;37093;37.716;-122.060;2022-11-11T05:54:54;8;8;
51052;PMS5003;37093;37.716;-122.060;2022-11-11T05:57:23;12;11;
51052;PMS5003;37093;37.716;-122.060;2022-11-11T05:59:52;16;15;
51052;PMS5003;37093;37.716;-122.060;2022-11-11T06:02:20;24;19;
51052;PMS5003;37093;37.716;-122.060;2022-11-11T06:04:48;22;18;
51052;PMS5003;37093;37.716;-122.060;2022-11-11T06:07:16;26;15;
51052;PMS5003;37093;37.716;-122.060;2022-11-11T06:09:44;27;15;
51052;PMS5003;37093;37.716;-122.060;2022-11-11T06:12:13;14;11;
51052;PMS5003;37093;37.716;-122.060;2022-11-11T06:14:42;14;13;
51052;PMS5003;37093;37.716;-122.060;2022-11-11T06:17:11;21;13;
51052;PMS5003;37093;37.716;-122.060;2022-11-11T06:19:39;9;8;
51052;PMS5003;37093;37.716;-122.060;2022-11-11T06:22:07;5;5;
51052;PMS5003;37093;37.716;-122.060;2022-11-11T06:24:36;4;4;
51052;PMS5003;37093;37.716;-122.060;2022-11-11T06:27:05;4;4;
51052;PMS5003;37093;37.716;-122.060;2022-11-11T06:29:33;4;4;
51052;PMS5003;37093;37.716;-122.060;2022-11-11T06:32:02;3;3;
51052;PMS5003;37093;37.716;-122.060;2022-11-11T06:34:31;5;5;
51052;PMS5003;37093;37.716;-122.060;2022-11-11T06:36:59;4;4;
51052;PMS5003;37093;37.716;-122.060;2022-11-11T06:39:28;4;4;
51052;PMS5003;37093;37.716;-122.060;2022-11-11T06:41:56;5;4;
51052;PMS5003;37093;37.716;-122.060;2022-11-11T06:44:25;4;4;
51052;PMS5003;37093;37.716;-122.060;2022-11-11T06:46:54;4;4;
51052;PMS5003;37093;37.716;-122.060;2022-11-11T06:49:21;5;5;
51052;PMS5003;37093;37.716;-122.060;2022-11-11T06:51:50;8;6;
51052;PMS5003;37093;37.716;-122.060;2022-11-11T06:54:19;6;6;
51052;PMS5003;37093;37.716;-122.060;2022-11-11T06:56:47;12;5;
51052;PMS5003;37093;37.716;-122.060;2022-11-11T06:59:16;3;3;
51052;PMS5003;37093;37.716;-122.060;2022-11-11T07:01:44;4;4;
51052;PMS5003;37093;37.716;-122.060;2022-11-11T07:04:13;4;4;
51052;PMS5003;37093;37.716;-122.060;2022-11-11T07:06:42;4;4;
51052;PMS5003;37093;37.716;-122.060;2022-11-11T07:09:10;4;4;
51052;PMS5003;37093;37.716;-122.060;2022-11-11T07:11:39;3;3;
51052;PMS5003;37093;37.716;-122.060;2022-11-11T07:14:07;4;4;
51052;PMS5003;37093;37.716;-122.060;2022-11-11T07:16:36;5;5;
51052;PMS5003;37093;37.716;-122.060;2022-11-11T07:19:05;7;5;
51052;PMS5003;37093;37.716;-122.060;2022-11-11T07:21:33;9;8;
51052;PMS5003;37093;37.716;-122.060;2022-11-11T07:24:02;8;6;
51052;PMS5003;37093;37.716;-122.060;2022-11-11T07:26:31;6;6;
51052;PMS5003;37093;37.716;-122.060;2022-11-11T07:28:59;4;4;
51052;PMS5003;37093;37.716;-122.060;2022-11-11T07:31:28;6;3;
51052;PMS5003;37093;37.716;-122.060;2022-11-11T07:33:56;7;5;
51052;PMS5003;37093;37.716;-122.060;2022-11-11T07:36:24;3;3;
51052;PMS5003;37093;37.716;-122.060;2022-11-11T07:38:53;4;4;
51052;PMS5003;37093;37.716;-122.060;2022-11-11T07:41:22;3;3;
51052;PMS5003;37093;37.716;-122.060;2022-11-11T07:43:51;4;4;
51052;PMS5003;37093;37.716;-122.060;2022-11-11T07:46:20;4;4;
51052;PMS5003;37093;37.716;-122.060;2022-11-11T07:48:49;3;3;
51052;PMS5003;37093;37.716;-122.060;2022-11-11T07:51:17;3;2;
51052;PMS5003;37093;37.716;-122.060;2022-11-11T07:53:46;5;4;
51052;PMS5003;37093;37.716;-122.060;2022-11-11T07:56:14;3;3;
51052;PMS5003;37093;37.716;-122.060;2022-11-11T07:58:43;10;5;
51052;PMS5003;37093;37.716;-122.060;2022-11-11T08:01:10;1;1;
51052;PMS5003;37093;37.716;-122.060;2022-11-11T08:03:40;6;5;
51052;PMS5003;37093;37.716;-122.060;2022-11-11T08:06:09;3;3;
51052;PMS5003;37093;37.716;-122.060;2022-11-11T08:08:38;7;3;
51052;PMS5003;37093;37.716;-122.060;2022-11-11T08:11:06;5;3;
51052;PMS5003;37093;37.716;-122.060;2022-11-11T08:13:34;10;5;
51052;PMS5003;37093;37.716;-122.060;2022-11-11T08:16:03;3;3;
51052;PMS5003;37093;37.716;-122.060;2022-11-11T08:18:32;4;4;
51052;PMS5003;37093;37.716;-122.060;2022-11-11T08:21:00;3;3;
51052;PMS5003;37093;37.716;-122.060;2022-11-11T08:23:30;5;5;
51052;PMS5003;37093;37.716;-122.060;2022-11-11T08:25:59;6;5;
51052;PMS5003;37093;37.716;-122.060;2022-11-11T08:28:29;7;6;
51052;PMS5003;37093;37.716;-122.060;2022-11-11T08:30:59;4;4;
51052;PMS5003;37093;37.716;-122.060;2022-11-11T08:33:28;5;4;
51052;PMS5003;37093;37.716;-122.060;2022-11-11T08:35:58;4;4;
51052;PMS5003;37093;37.716;-122.060;2022-11-11T08:38:26;6;5;
51052;PMS5003;37093;37.716;-122.060;2022-11-11T08:40:58;5;5;
51052;PMS5003;37093;37.716;-122.060;2022-11-11T08:43:27;5;4;
51052;PMS5003;37093;37.716;-122.060;2022-11-11T08:45:55;5;3;
51052;PMS5003;37093;37.716;-122.060;2022-11-11T08:48:24;3;3;
51052;PMS5003;37093;37.716;-122.060;2022-11-11T08:50:53;4;4;
51052;PMS5003;37093;37.716;-122.060;2022-11-11T08:53:21;4;4;
51052;PMS5003;37093;37.716;-122.060;2022-11-11T08:55:50;5;5;
51052;PMS5003;37093;37.716;-122.060;2022-11-11T08:58:19;5;3;
51052;PMS5003;37093;37.716;-122.060;2022-11-11T09:00:47;5;4;
51052;PMS5003;37093;37.716;-122.060;2022-11-11T09:03:16;3;3;
51052;PMS5003;37093;37.716;-122.060;2022-11-11T09:05:44;4;4;
51052;PMS5003;37093;37.716;-122.060;2022-11-11T09:08:13;6;4;
51052;PMS5003;37093;37.716;-122.060;2022-11-11T09:10:42;4;3;
51052;PMS5003;37093;37.716;-122.060;2022-11-11T09:13:10;4;4;
51052;PMS5003;37093;37.716;-122.060;2022-11-11T09:15:39;4;4;
51052;PMS5003;37093;37.716;-122.060;2022-11-11T09:18:08;4;4;
51052;PMS5003;37093;37.716;-122.060;2022-11-11T09:20:36;4;4;
51052;PMS5003;37093;37.716;-122.060;2022-11-11T09:23:05;9;4;
51052;PMS5003;37093;37.716;-122.060;2022-11-11T09:25:34;5;3;
51052;PMS5003;37093;37.716;-122.060;2022-11-11T09:28:02;4;4;
51052;PMS5003;37093;37.716;-122.060;2022-11-11T09:30:31;8;4;
51052;PMS5003;37093;37.716;-122.060;2022-11-11T09:33:01;4;4;
51052;PMS5003;37093;37.716;-122.060;2022-11-11T09:35:30;10;4;
51052;PMS5003;37093;37.716;-122.060;2022-11-11T09:37:59;5;4;
51052;PMS5003;37093;37.716;-122.060;2022-11-11T09:40:32;4;4;
51052;PMS5003;37093;37.716;-122.060;2022-11-11T09:43:13;4;4;
51052;PMS5003;37093;37.716;-122.060;2022-11-11T09:45:49;5;3;
51052;PMS5003;37093;37.716;-122.060;2022-11-11T09:48:36;5;4;
51052;PMS5003;37093;37.716;-122.060;2022-11-11T09:51:15;4;4;
51052;PMS5003;37093;37.716;-122.060;2022-11-11T09:53:49;8;4;
51052;PMS5003;37093;37.716;-122.060;2022-11-11T09:56:21;4;4;
51052;PMS5003;37093;37.716;-122.060;2022-11-11T09:58:51;15;6;
51052;PMS5003;37093;37.716;-122.060;2022-11-11T10:01:31;16;5;
51052;PMS5003;37093;37.716;-122.060;2022-11-11T10:04:07;4;4;
51052;PMS5003;37093;37.716;-122.060;2022-11-11T10:06:49;5;4;
51052;PMS5003;37093;37.716;-122.060;2022-11-11T10:09:24;5;5;
51052;PMS5003;37093;37.716;-122.060;2022-11-11T10:12:02;9;5;
51052;PMS5003;37093;37.716;-122.060;2022-11-11T10:14:37;14;5;
51052;PMS5003;37093;37.716;-122.060;2022-11-11T10:17:13;4;3;
51052;PMS5003;37093;37.716;-122.060;2022-11-11T10:19:55;5;5;
51052;PMS5003;37093;37.716;-122.060;2022-11-11T10:22:35;4;4;
51052;PMS5003;37093;37.716;-122.060;2022-11-11T10:25:08;6;5;
51052;PMS5003;37093;37.716;-122.060;2022-11-11T10:27:48;6;4;
51052;PMS5003;37093;37.716;-122.060;2022-11-11T10:30:19;7;4;
51052;PMS5003;37093;37.716;-122.060;2022-11-11T10:32:52;4;4;
51052;PMS5003;37093;37.716;-122.060;2022-11-11T10:35:25;7;5;
51052;PMS5003;37093;37.716;-122.060;2022-11-11T10:37:57;4;4;
51052;PMS5003;37093;37.716;-122.060;2022-11-11T10:40:40;3;3;
51052;PMS5003;37093;37.716;-122.060;2022-11-11T10:43:18;5;3;
51052;PMS5003;37093;37.716;-122.060;2022-11-11T10:46:56;4;4;
51052;PMS5003;37093;37.716;-122.060;2022-11-11T10:49:32;3;2;
51052;PMS5003;37093;37.716;-122.060;2022-11-11T10:52:06;4;4;
51052;PMS5003;37093;37.716;-122.060;2022-11-11T10:54:44;5;3;
51052;PMS5003;37093;37.716;-122.060;2022-11-11T10:57:20;5;3;
51052;PMS5003;37093;37.716;-122.060;2022-11-11T10:59:52;4;4;
51052;PMS5003;37093;37.716;-122.060;2022-11-11T11:02:29;5;4;
51052;PMS5003;37093;37.716;-122.060;2022-11-11T11:05:08;8;5;
51052;PMS5003;37093;37.716;-122.060;2022-11-11T11:07:43;4;3;
51052;PMS5003;37093;37.716;-122.060;2022-11-11T11:10:14;4;4;
51052;PMS5003;37093;37.716;-122.060;2022-11-11T11:12:46;5;5;
51052;PMS5003;37093;37.716;-122.060;2022-11-11T11:15:20;5;3;
51052;PMS5003;37093;37.716;-122.060;2022-11-11T11:17:57;5;3;
51052;PMS5003;37093;37.716;-122.060;2022-11-11T11:20:31;7;5;
51052;PMS5003;37093;37.716;-122.060;2022-11-11T11:22:59;5;4;
51052;PMS5003;37093;37.716;-122.060;2022-11-11T11:25:29;5;3;
51052;PMS5003;37093;37.716;-122.060;2022-11-11T11:28:07;4;4;
51052;PMS5003;37093;37.716;-122.060;2022-11-11T11:30:36;3;3;
51052;PMS5003;37093;37.716;-122.060;2022-11-11T11:33:06;3;3;
51052;PMS5003;37093;37.716;-122.060;2022-11-11T11:35:36;3;3;
51052;PMS5003;37093;37.716;-122.060;2022-11-11T11:38:06;5;5;
51052;PMS5003;37093;37.716;-122.060;2022-11-11T11:40:44;4;4;
51052;PMS5003;37093;37.716;-122.060;2022-11-11T11:43:32;2;2;
51052;PMS5003;37093;37.716;-122.060;2022-11-11T11:46:03;4;4;
51052;PMS5003;37093;37.716;-122.060;2022-11-11T11:48:48;5;4;
51052;PMS5003;37093;37.716;-122.060;2022-11-11T11:51:32;5;5;
51052;PMS5003;37093;37.716;-122.060;2022-11-11T11:54:13;3;3;
51052;PMS5003;37093;37.716;-122.060;2022-11-11T11:56:52;5;4;
51052;PMS5003;37093;37.716;-122.060;2022-11-11T11:59:27;4;3;
51052;PMS5003;37093;37.716;-122.060;2022-11-11T12:02:08;5;3;
51052;PMS5003;37093;37.716;-122.060;2022-11-11T12:04:53;4;4;
51052;PMS5003;37093;37.716;-122.060;2022-11-11T12:07:35;3;3;
51052;PMS5003;37093;37.716;-122.060;2022-11-11T12:10:17;4;4;
51052;PMS5003;37093;37.716;-122.060;2022-11-11T12:12:55;4;4;
51052;PMS5003;37093;37.716;-122.060;2022-11-11T12:15:32;4;4;
51052;PMS5003;37093;37.716;-122.060;2022-11-11T12:18:11;5;5;
51052;PMS5003;37093;37.716;-122.060;2022-11-11T12:20:58;5;4;
51052;PMS5003;37093;37.716;-122.060;2022-11-11T12:23:40;5;3;
51052;PMS5003;37093;37.716;-122.060;2022-11-11T12:26:34;3;3;
51052;PMS5003;37093;37.716;-122.060;2022-11-11T12:29:13;4;3;
51052;PMS5003;37093;37.716;-122.060;2022-11-11T12:31:55;6;5;
51052;PMS5003;37093;37.716;-122.060;2022-11-11T12:34:40;4;4;
51052;PMS5003;37093;37.716;-122.060;2022-11-11T12:37:28;5;5;
51052;PMS5003;37093;37.716;-122.060;2022-11-11T12:40:12;4;4;
51052;PMS5003;37093;37.716;-122.060;2022-11-11T12:42:50;4;4;
51052;PMS5003;37093;37.716;-122.060;2022-11-11T12:45:30;6;4;
51052;PMS5003;37093;37.716;-122.060;2022-11-11T12:48:04;4;4;
51052;PMS5003;37093;37.716;-122.060;2022-11-11T12:50:48;5;4;
51052;PMS5003;37093;37.716;-122.060;2022-11-11T12:53:30;5;5;
51052;PMS5003;37093;37.716;-122.060;2022-11-11T12:56:10;3;3;
51052;PMS5003;37093;37.716;-122.060;2022-11-11T12:58:48;4;4;
51052;PMS5003;37093;37.716;-122.060;2022-11-11T13:01:30;3;3;
51052;PMS5003;37093;37.716;-122.060;2022-11-11T13:04:21;4;4;
51052;PMS5003;37093;37.716;-122.060;2022-11-11T13:07:05;2;2;
51052;PMS5003;37093;37.716;-122.060;2022-11-11T13:09:59;6;4;
51052;PMS5003;37093;37.716;-122.060;2022-11-11T13:12:41;5;4;
51052;PMS5003;37093;37.716;-122.060;2022-11-11T13:15:14;6;6;
51052;PMS5003;37093;37.716;-122.060;2022-11-11T13:17:47;14;5;
51052;PMS5003;37093;37.716;-122.060;2022-11-11T13:20:18;4;4;
51052;PMS5003;37093;37.716;-122.060;2022-11-11T13:22:59;3;2;
51052;PMS5003;37093;37.716;-122.060;2022-11-11T13:25:29;5;3;
51052;PMS5003;37093;37.716;-122.060;2022-11-11T13:28:03;6;4;
51052;PMS5003;37093;37.716;-122.060;2022-11-11T13:30:44;4;4;
51052;PMS5003;37093;37.716;-122.060;2022-11-11T13:33:19;4;4;
51052;PMS5003;37093;37.716;-122.060;2022-11-11T13:35:52;6;5;
51052;PMS5003;37093;37.716;-122.060;2022-11-11T13:38:25;4;4;
51052;PMS5003;37093;37.716;-122.060;2022-11-11T13:40:58;5;4;
51052;PMS5003;37093;37.716;-122.060;2022-11-11T13:43:31;6;5;
51052;PMS5003;37093;37.716;-122.060;2022-11-11T13:46:03;5;4;
51052;PMS5003;37093;37.716;-122.060;2022-11-11T13:48:38;4;4;
51052;PMS5003;37093;37.716;-122.060;2022-11-11T13:51:19;4;4;
51052;PMS5003;37093;37.716;-122.060;2022-11-11T13:53:51;5;5;
51052;PMS5003;37093;37.716;-122.060;2022-11-11T13:56:22;4;4;
51052;PMS5003;37093;37.716;-122.060;2022-11-11T13:58:53;5;5;
51052;PMS5003;37093;37.716;-122.060;2022-11-11T14:01:23;5;3;
51052;PMS5003;37093;37.716;-122.060;2022-11-11T14:04:01;7;4;
51052;PMS5003;37093;37.716;-122.060;2022-11-11T14:06:52;6;5;
51052;PMS5003;37093;37.716;-122.060;2022-11-11T14:11:32;5;4;
51052;PMS5003;37093;37.716;-122.060;2022-11-11T14:15:31;2;2;
51052;PMS5003;37093;37.716;-122.060;2022-11-11T14:18:03;5;5;
51052;PMS5003;37093;37.716;-122.060;2022-11-11T14:20:37;5;3;
51052;PMS5003;37093;37.716;-122.060;2022-11-11T14:23:24;3;3;
51052;PMS5003;37093;37.716;-122.060;2022-11-11T14:26:19;3;3;
51052;PMS5003;37093;37.716;-122.060;2022-11-11T14:28:51;5;3;
51052;PMS5003;37093;37.716;-122.060;2022-11-11T14:31:35;5;3;
51052;PMS5003;37093;37.716;-122.060;2022-11-11T14:34:51;5;3;
51052;PMS5003;37093;37.716;-122.060;2022-11-11T14:37:31;3;3;
51052;PMS5003;37093;37.716;-122.060;2022-11-11T14:40:27;3;3;
51052;PMS5003;37093;37.716;-122.060;2022-11-11T14:42:57;4;4;
51052;PMS5003;37093;37.716;-122.060;2022-11-11T14:45:59;8;3;
51052;PMS5003;37093;37.716;-122.060;2022-11-11T14:49:01;3;3;
51052;PMS5003;37093;37.716;-122.060;2022-11-11T14:51:45;8;4;
51052;PMS5003;37093;37.716;-122.060;2022-11-11T14:54:34;4;4;
51052;PMS5003;37093;37.716;-122.060;2022-11-11T14:57:17;4;3;
51052;PMS5003;37093;37.716;-122.060;2022-11-11T14:59:48;3;3;
51052;PMS5003;37093;37.716;-122.060;2022-11-11T15:02:25;6;4;
51052;PMS5003;37093;37.716;-122.060;2022-11-11T15:04:58;5;3;
51052;PMS5003;37093;37.716;-122.060;2022-11-11T15:07:31;3;3;
51052;PMS5003;37093;37.716;-122.060;2022-11-11T15:10:20;3;3;
51052;PMS5003;37093;37.716;-122.060;2022-11-11T15:13:06;3;3;
51052;PMS5003;37093;37.716;-122.060;2022-11-11T15:15:55;4;3;
51052;PMS5003;37093;37.716;-122.060;2022-11-11T15:18:43;4;3;
51052;PMS5003;37093;37.716;-122.060;2022-11-11T15:21:24;7;4;
51052;PMS5003;37093;37.716;-122.060;2022-11-11T15:24:03;4;4;
51052;PMS5003;37093;37.716;-122.060;2022-11-11T15:26:45;4;4;
51052;PMS5003;37093;37.716;-122.060;2022-11-11T15:29:27;5;4;
51052;PMS5003;37093;37.716;-122.060;2022-11-11T15:32:13;4;4;
51052;PMS5003;37093;37.716;-122.060;2022-11-11T15:34:50;5;5;
51052;PMS5003;37093;37.716;-122.060;2022-11-11T15:37:26;5;5;
51052;PMS5003;37093;37.716;-122.060;2022-11-11T15:39:55;4;4;
51052;PMS5003;37093;37.716;-122.060;2022-11-11T15:42:27;3;3;
51052;PMS5003;37093;37.716;-122.060;2022-11-11T15:44:58;7;4;
51052;PMS5003;37093;37.716;-122.060;2022-11-11T15:47:29;5;5;
51052;PMS5003;37093;37.716;-122.060;2022-11-11T15:50:02;4;3;
51052;PMS5003;37093;37.716;-122.060;2022-11-11T15:52:42;2;2;
51052;PMS5003;37093;37.716;-122.060;2022-11-11T15:55:17;4;4;
51052;PMS5003;37093;37.716;-122.060;2022-11-11T15:57:48;4;4;
51052;PMS5003;37093;37.716;-122.060;2022-11-11T16:00:25;5;5;
51052;PMS5003;37093;37.716;-122.060;2022-11-11T16:02:56;9;4;
51052;PMS5003;37093;37.716;-122.060;2022-11-11T16:05:27;6;5;
51052;PMS5003;37093;37.716;-122.060;2022-11-11T16:08:01;5;5;
51052;PMS5003;37093;37.716;-122.060;2022-11-11T16:10:34;5;5;
51052;PMS5003;37093;37.716;-122.060;2022-11-11T16:13:04;5;4;
51052;PMS5003;37093;37.716;-122.060;2022-11-11T16:15:39;3;3;
51052;PMS5003;37093;37.716;-122.060;2022-11-11T16:18:12;4;3;
51052;PMS5003;37093;37.716;-122.060;2022-11-11T16:20:45;6;4;
51052;PMS5003;37093;37.716;-122.060;2022-11-11T16:23:17;5;4;
51052;PMS5003;37093;37.716;-122.060;2022-11-11T16:25:47;4;4;
51052;PMS5003;37093;37.716;-122.060;2022-11-11T16:28:17;4;4;
51052;PMS5003;37093;37.716;-122.060;2022-11-11T16:30:45;5;5;
51052;PMS5003;37093;37.716;-122.060;2022-11-11T16:33:46;5;5;
51052;PMS5003;37093;37.716;-122.060;2022-11-11T16:36:14;3;3;